Hlavní strana
METAR-TAF:

METAR-TAF

Letiště :

Mwanza, Tanzanie

zeměpisná šířka: 02-28S, zeměpisná délka: 032-55E, výška: 1139 m

Aktuální stav počasí

Zpráva byla vytvořena před 55 minutami, v 12:00 UTC
Jihojihozápadní vítr 8 kt
Teplota 24°C
Vlhkost vzduchu 74%
Tlak 1015 hPa
Viditelnost 10 km a více
Skoro jasno ve výšce 2200 ft
Skoro jasno ve výšce 2300 ft, Cumulonimbus.
Oblačno až skoro zataženo ve výšce 11000 ft

METAR: HTMW 191200Z 21008KT 9999 FEW022 FEW023CB BKN110 24/19 Q1015 NOSIG

Čas: 15:55 (12:55 UTC)

Předpověď počasí

Zpráva byla vytvořena před 1 hodinou a 55 minutami, v 11:00 UTC
Předpověď platná od 19 v 12 UTC do 20 v 12 UTC
Severoseverozápadní vítr 10 kt
Viditelnost 10 km a více
Skoro jasno ve výšce 2100 ft
Skoro jasno ve výšce 2200 ft, Cumulonimbus.
Změna
od 19 v 16 UTC do 19 v 18 UTC
Severní vítr kt
Změna
od 20 v 04 UTC do 20 v 06 UTC
Východojihovýchodní vítr 10 kt

TAF: HTMW 191100Z 1912/2012 33010KT 9999 FEW021 FEW022CB BECMG 1916/1918 00000KT BECMG 2004/2006 12010KT

Stav a předpovědi počasí z více než 4 000 letišť (zprávy METAR a TAF).

Červené a žluté tečky na mapě představují dostupné meteorologické stanice.

Když kurzor umístíte na tečku, zobrazí se název stanice.

Pak kliknutím zobrazíte stav a předpověď počasí.

Chcete-li změnit mapu, kliknutím na zelené tlačítko se znaménkem +mapu přiblížíte, kliknutím na zelené tlačítko se znaménkem – mapu oddálíte a kliknutím na zelené šipky přejdete na sousední mapy.


METAR-TAF: